createdAt,value
2018-04-06T00:00:02.698Z,6.50
2018-04-06T00:02:31.717Z,6.50
2018-04-06T00:05:00.110Z,6.50
2018-04-06T00:07:28.358Z,6.50
2018-04-06T00:09:56.853Z,6.50
2018-04-06T00:12:25.118Z,6.40
2018-04-06T00:14:53.358Z,6.40
2018-04-06T00:17:21.589Z,6.40
2018-04-06T00:19:49.856Z,6.40
2018-04-06T00:22:18.113Z,6.40
2018-04-06T00:24:47.116Z,6.40
2018-04-06T00:27:16.463Z,6.30
2018-04-06T00:29:44.696Z,6.30
2018-04-06T00:32:12.928Z,6.40
2018-04-06T00:34:41.201Z,6.30
2018-04-06T00:37:09.442Z,6.30
2018-04-06T00:39:37.693Z,6.20
2018-04-06T00:42:06.725Z,6.30
2018-04-06T00:44:34.985Z,6.30
2018-04-06T00:47:03.225Z,6.50
2018-04-06T00:49:32.481Z,6.70
2018-04-06T00:52:00.750Z,6.60
2018-04-06T00:54:29.013Z,6.60
2018-04-06T00:56:57.278Z,6.40
2018-04-06T00:59:25.517Z,6.20
2018-04-06T01:01:53.755Z,6.00
2018-04-06T01:04:22.056Z,5.90
2018-04-06T01:06:50.281Z,5.80
2018-04-06T01:09:18.521Z,5.80
2018-04-06T01:11:47.273Z,5.70
2018-04-06T01:14:15.514Z,5.70
2018-04-06T01:16:43.744Z,5.70
2018-04-06T01:19:12.010Z,5.70
2018-04-06T01:21:40.245Z,5.60
2018-04-06T01:24:08.562Z,5.60
2018-04-06T01:26:36.822Z,5.60
2018-04-06T01:29:05.058Z,5.60
2018-04-06T01:31:33.305Z,5.60
2018-04-06T01:34:01.771Z,5.60
2018-04-06T01:36:30.004Z,5.50
2018-04-06T01:38:58.238Z,5.40
2018-04-06T01:41:26.494Z,5.30
2018-04-06T01:43:54.733Z,5.30
2018-04-06T01:46:22.978Z,5.30
2018-04-06T01:48:51.248Z,5.30
2018-04-06T01:51:19.480Z,5.30
2018-04-06T01:53:47.709Z,5.30
2018-04-06T01:56:16.038Z,5.30
2018-04-06T01:58:44.282Z,5.30
2018-04-06T02:01:13.293Z,5.30
2018-04-06T02:03:43.497Z,5.20
2018-04-06T02:06:12.496Z,5.20
2018-04-06T02:08:41.513Z,5.30
2018-04-06T02:11:09.769Z,5.20
2018-04-06T02:13:38.250Z,5.30
2018-04-06T02:16:07.244Z,5.20
2018-04-06T02:18:36.889Z,5.20
2018-04-06T02:21:05.131Z,5.20
2018-04-06T02:23:33.365Z,5.10
2018-04-06T02:26:01.618Z,5.30
2018-04-06T02:28:29.857Z,5.50
2018-04-06T02:30:58.090Z,5.50
2018-04-06T02:33:26.345Z,5.40
2018-04-06T02:35:54.585Z,5.30
2018-04-06T02:38:23.593Z,5.20
2018-04-06T02:40:51.998Z,5.20
2018-04-06T02:43:20.233Z,5.10
2018-04-06T02:45:48.469Z,5.00
2018-04-06T02:48:16.730Z,4.90
2018-04-06T02:50:44.966Z,4.90
2018-04-06T02:53:13.209Z,4.80
2018-04-06T02:55:41.461Z,4.80
2018-04-06T02:58:09.706Z,4.70
2018-04-06T03:00:38.084Z,4.70
2018-04-06T03:03:07.409Z,4.70
2018-04-06T03:05:36.365Z,4.70
2018-04-06T03:08:05.391Z,4.80
2018-04-06T03:10:33.662Z,4.80
2018-04-06T03:13:01.938Z,4.70
2018-04-06T03:15:30.494Z,4.60
2018-04-06T03:17:59.516Z,4.50
2018-04-06T03:20:27.761Z,4.50
2018-04-06T03:22:56.010Z,4.40
2018-04-06T03:25:24.378Z,4.40
2018-04-06T03:27:52.657Z,4.40
2018-04-06T03:30:20.867Z,4.40
2018-04-06T03:32:49.125Z,4.40
2018-04-06T03:35:17.362Z,4.40
2018-04-06T03:37:45.605Z,4.30
2018-04-06T03:40:14.633Z,4.30
2018-04-06T03:42:42.873Z,4.30
2018-04-06T03:45:11.104Z,4.30
2018-04-06T03:47:39.467Z,4.30
2018-04-06T03:50:08.461Z,4.30
2018-04-06T03:52:36.702Z,4.20
2018-04-06T03:55:04.957Z,4.20
2018-04-06T03:57:33.189Z,4.20
2018-04-06T04:00:01.421Z,4.20
2018-04-06T04:02:29.743Z,4.10
2018-04-06T04:04:57.927Z,4.10
2018-04-06T04:07:26.161Z,4.20
2018-04-06T04:09:54.794Z,4.10
2018-04-06T04:12:23.034Z,4.10
2018-04-06T04:14:51.281Z,4.10
2018-04-06T04:17:20.618Z,4.10
2018-04-06T04:19:48.853Z,4.10
2018-04-06T04:22:17.096Z,4.10
2018-04-06T04:24:45.352Z,4.10
2018-04-06T04:27:13.592Z,4.10
2018-04-06T04:29:41.833Z,4.00
2018-04-06T04:32:10.596Z,4.00
2018-04-06T04:34:38.848Z,4.00
2018-04-06T04:37:07.294Z,4.00
2018-04-06T04:39:35.560Z,4.00
2018-04-06T04:42:03.938Z,4.00
2018-04-06T04:44:32.173Z,4.00
2018-04-06T04:47:00.433Z,4.00
2018-04-06T04:49:28.667Z,4.00
2018-04-06T04:51:56.914Z,4.00
2018-04-06T04:54:25.399Z,4.00
2018-04-06T04:56:53.629Z,4.00
2018-04-06T04:59:21.874Z,4.00
2018-04-06T05:01:50.139Z,4.00
2018-04-06T05:04:18.383Z,4.00
2018-04-06T05:06:46.612Z,4.00
2018-04-06T05:09:14.886Z,4.00
2018-04-06T05:11:43.123Z,4.00
2018-04-06T05:14:11.370Z,4.00
2018-04-06T05:16:39.678Z,4.00
2018-04-06T05:19:08.390Z,4.00
2018-04-06T05:21:36.613Z,4.10
2018-04-06T05:24:06.357Z,4.30
2018-04-06T05:26:34.594Z,4.30
2018-04-06T05:29:03.750Z,4.30
2018-04-06T05:31:31.998Z,4.30
2018-04-06T05:34:00.249Z,4.30
2018-04-06T05:36:28.485Z,4.40
2018-04-06T05:38:57.762Z,4.50
2018-04-06T05:41:26.373Z,4.60
2018-04-06T05:43:54.613Z,4.60
2018-04-06T05:46:22.881Z,4.60
2018-04-06T05:48:51.120Z,4.60
2018-04-06T05:51:19.369Z,4.60
2018-04-06T05:53:47.634Z,4.60
2018-04-06T05:56:15.873Z,4.60
2018-04-06T05:58:44.122Z,4.60
2018-04-06T06:01:12.425Z,4.70
2018-04-06T06:03:40.665Z,4.70
2018-04-06T06:06:08.909Z,4.80
2018-04-06T06:08:37.170Z,5.00
2018-04-06T06:11:05.414Z,5.00
2018-04-06T06:13:34.423Z,5.30
2018-04-06T06:16:03.448Z,5.30
2018-04-06T06:18:31.695Z,5.30
2018-04-06T06:21:00.433Z,5.30
2018-04-06T06:23:29.161Z,5.40
2018-04-06T06:25:59.036Z,5.40
2018-04-06T06:28:27.286Z,5.40
2018-04-06T06:30:55.550Z,5.30
2018-04-06T06:33:23.795Z,5.40
2018-04-06T06:35:52.139Z,5.40
2018-04-06T06:38:20.386Z,5.50
2018-04-06T06:40:48.641Z,5.50
2018-04-06T06:43:16.972Z,5.60
2018-04-06T06:45:45.533Z,5.70
2018-04-06T06:48:13.824Z,5.70
2018-04-06T06:50:42.005Z,5.80
2018-04-06T06:53:10.270Z,5.80
2018-04-06T06:55:38.522Z,5.80
2018-04-06T06:58:06.766Z,5.90
2018-04-06T07:00:35.797Z,6.00
2018-04-06T07:03:04.037Z,6.00
2018-04-06T07:05:32.321Z,6.10
2018-04-06T07:08:01.025Z,6.10
2018-04-06T07:10:29.764Z,6.10
2018-04-06T07:12:58.074Z,6.20
2018-04-06T07:15:26.922Z,6.20
2018-04-06T07:17:55.162Z,6.20
2018-04-06T07:20:23.404Z,6.20
2018-04-06T07:22:52.880Z,6.40
2018-04-06T07:25:21.117Z,6.40
2018-04-06T07:27:49.349Z,6.40
2018-04-06T07:30:17.669Z,6.50
2018-04-06T07:32:46.062Z,6.50
2018-04-06T07:35:14.330Z,6.60
2018-04-06T07:37:43.038Z,6.60
2018-04-06T07:40:11.308Z,6.80
2018-04-06T07:42:39.538Z,6.80
2018-04-06T07:45:08.013Z,6.80
2018-04-06T07:47:36.245Z,6.90
2018-04-06T07:50:04.495Z,6.90
2018-04-06T07:52:33.083Z,7.00
2018-04-06T07:55:01.318Z,7.00
2018-04-06T07:57:29.588Z,7.10
2018-04-06T07:59:59.209Z,7.10
2018-04-06T08:02:27.620Z,7.10
2018-04-06T08:04:56.771Z,7.20
2018-04-06T08:07:25.190Z,7.20
2018-04-06T08:09:53.580Z,7.20
2018-04-06T08:12:21.839Z,7.30
2018-04-06T08:14:51.349Z,7.40
2018-04-06T08:17:19.806Z,7.40
2018-04-06T08:19:48.198Z,7.50
2018-04-06T08:22:16.699Z,7.40
2018-04-06T08:24:45.985Z,7.50
2018-04-06T08:27:14.470Z,7.60
2018-04-06T08:29:42.870Z,7.60
2018-04-06T08:32:11.242Z,7.70
2018-04-06T08:34:39.690Z,7.80
2018-04-06T08:37:08.563Z,7.90
2018-04-06T08:39:37.017Z,7.90
2018-04-06T08:42:05.401Z,8.00
2018-04-06T08:44:33.711Z,8.00
2018-04-06T08:47:02.459Z,8.10
2018-04-06T08:49:31.121Z,8.20
2018-04-06T08:51:59.593Z,8.30
2018-04-06T08:54:27.813Z,8.40
2018-04-06T08:56:56.068Z,8.50
2018-04-06T08:59:24.830Z,8.50
2018-04-06T09:01:53.065Z,8.40
2018-04-06T09:04:21.307Z,8.40
2018-04-06T09:06:49.565Z,8.40
2018-04-06T09:09:18.577Z,8.70
2018-04-06T09:11:46.907Z,8.60
2018-04-06T09:14:15.386Z,8.70
2018-04-06T09:16:43.634Z,8.80
2018-04-06T09:19:12.045Z,8.80
2018-04-06T09:21:41.488Z,9.00
2018-04-06T09:24:09.738Z,9.00
2018-04-06T09:26:38.190Z,9.00
2018-04-06T09:29:06.465Z,9.00
2018-04-06T09:31:36.064Z,9.10
2018-04-06T09:34:04.412Z,9.10
2018-04-06T09:36:35.764Z,9.20
2018-04-06T09:39:04.468Z,9.30
2018-04-06T09:41:33.080Z,9.40
2018-04-06T09:44:02.374Z,9.40
2018-04-06T09:46:31.709Z,9.50
2018-04-06T09:49:00.411Z,9.50
2018-04-06T09:51:28.847Z,9.50
2018-04-06T09:53:57.454Z,9.60
2018-04-06T09:56:25.923Z,9.70
2018-04-06T09:58:54.346Z,9.80
2018-04-06T10:01:23.255Z,9.90
2018-04-06T10:03:52.163Z,9.90
2018-04-06T10:06:20.701Z,10.00
2018-04-06T10:08:49.313Z,10.10
2018-04-06T10:11:17.794Z,10.10
2018-04-06T10:13:46.673Z,10.10
2018-04-06T10:16:15.103Z,10.20
2018-04-06T10:18:43.457Z,10.30
2018-04-06T10:21:12.592Z,10.40
2018-04-06T10:23:40.952Z,10.50
2018-04-06T10:26:09.356Z,10.70
2018-04-06T10:28:38.094Z,10.80
2018-04-06T10:31:06.478Z,10.90
2018-04-06T10:33:34.785Z,11.20
2018-04-06T10:36:03.537Z,11.40
2018-04-06T10:38:31.878Z,12.00
2018-04-06T10:41:00.882Z,14.10
2018-04-06T10:43:30.028Z,14.80
2018-04-06T10:45:58.250Z,14.80
2018-04-06T10:48:27.249Z,16.30
2018-04-06T10:50:55.973Z,16.30
2018-04-06T10:53:24.242Z,16.90
2018-04-06T10:55:52.465Z,17.50
2018-04-06T10:58:20.725Z,17.90
2018-04-06T11:00:48.974Z,18.40
2018-04-06T11:03:17.220Z,18.80
2018-04-06T11:05:45.569Z,19.30
2018-04-06T11:08:13.816Z,19.50
2018-04-06T11:10:42.080Z,19.70
2018-04-06T11:13:10.829Z,20.10
2018-04-06T11:15:40.458Z,20.20
2018-04-06T11:18:10.673Z,20.40
2018-04-06T11:20:39.408Z,20.90
2018-04-06T11:23:07.673Z,21.40
2018-04-06T11:25:35.900Z,21.60
2018-04-06T11:28:04.405Z,21.60
2018-04-06T11:30:32.737Z,21.90
2018-04-06T11:33:00.985Z,22.40
2018-04-06T11:35:29.312Z,22.90
2018-04-06T11:37:58.164Z,23.00
2018-04-06T11:40:26.398Z,23.10
2018-04-06T11:42:54.815Z,23.40
2018-04-06T11:45:23.109Z,23.40
2018-04-06T11:47:51.344Z,23.50
2018-04-06T11:50:19.605Z,23.20
2018-04-06T11:52:47.858Z,23.00
2018-04-06T11:55:16.865Z,23.50
2018-04-06T11:57:46.197Z,23.20
2018-04-06T12:00:14.437Z,23.20
2018-04-06T12:02:42.677Z,22.90
2018-04-06T12:05:10.953Z,22.90
2018-04-06T12:07:39.209Z,23.70
2018-04-06T12:10:07.449Z,24.70
2018-04-06T12:12:35.988Z,25.60
2018-04-06T12:15:04.299Z,26.20
2018-04-06T12:17:32.570Z,26.30
2018-04-06T12:20:01.926Z,27.10
2018-04-06T12:22:30.165Z,27.10
2018-04-06T12:24:58.490Z,27.40
2018-04-06T12:27:26.732Z,27.20
2018-04-06T12:29:54.981Z,27.30
2018-04-06T12:32:23.366Z,27.40
2018-04-06T12:34:52.888Z,27.30
2018-04-06T12:37:21.189Z,27.00
2018-04-06T12:39:49.549Z,26.80
2018-04-06T12:42:17.920Z,27.20
2018-04-06T12:44:46.195Z,27.80
2018-04-06T12:47:14.439Z,28.50
2018-04-06T12:49:42.720Z,28.60
2018-04-06T12:52:10.954Z,28.30
2018-04-06T12:54:39.203Z,28.60
2018-04-06T12:57:07.457Z,28.40
2018-04-06T12:59:35.704Z,28.40
2018-04-06T13:02:03.982Z,28.10
2018-04-06T13:04:32.316Z,28.80
2018-04-06T13:07:00.574Z,29.10
2018-04-06T13:09:29.581Z,29.70
2018-04-06T13:11:57.874Z,29.60
2018-04-06T13:14:26.106Z,29.60
2018-04-06T13:16:54.454Z,30.10
2018-04-06T13:19:22.702Z,30.80
2018-04-06T13:21:51.028Z,30.70
2018-04-06T13:24:19.282Z,30.70
2018-04-06T13:26:47.990Z,31.10
2018-04-06T13:29:16.492Z,31.40
2018-04-06T13:31:45.497Z,31.70
2018-04-06T13:34:13.898Z,31.80
2018-04-06T13:36:42.280Z,31.30
2018-04-06T13:39:11.514Z,31.90
2018-04-06T13:41:39.789Z,31.90
2018-04-06T13:44:08.073Z,31.60
2018-04-06T13:46:36.345Z,31.50
2018-04-06T13:49:04.766Z,31.70
2018-04-06T13:51:33.013Z,31.30
2018-04-06T13:54:01.488Z,31.40
2018-04-06T13:56:29.889Z,31.90
2018-04-06T13:58:58.908Z,31.80
2018-04-06T14:01:27.910Z,32.20
2018-04-06T14:03:56.253Z,32.20
2018-04-06T14:06:25.266Z,32.50
2018-04-06T14:08:53.521Z,32.50
2018-04-06T14:11:21.872Z,32.70
2018-04-06T14:13:50.122Z,33.00
2018-04-06T14:16:18.365Z,33.20
2018-04-06T14:18:46.634Z,33.30
2018-04-06T14:21:15.794Z,33.40
2018-04-06T14:23:44.029Z,33.40
2018-04-06T14:26:12.301Z,33.50
2018-04-06T14:28:41.578Z,33.60
2018-04-06T14:31:09.926Z,33.60
2018-04-06T14:33:38.377Z,33.80
2018-04-06T14:36:06.685Z,33.90
2018-04-06T14:38:35.068Z,34.10
2018-04-06T14:41:03.486Z,34.10
2018-04-06T14:43:32.494Z,34.10
2018-04-06T14:46:00.741Z,34.10
2018-04-06T14:48:29.021Z,34.30
2018-04-06T14:50:58.029Z,34.50
2018-04-06T14:53:26.313Z,34.50
2018-04-06T14:55:55.621Z,34.60
2018-04-06T14:58:23.870Z,34.60
2018-04-06T15:00:52.121Z,34.70
2018-04-06T15:03:20.390Z,34.90
2018-04-06T15:05:48.629Z,35.20
2018-04-06T15:08:16.882Z,35.50
2018-04-06T15:10:45.921Z,35.70
2018-04-06T15:13:14.160Z,35.70
2018-04-06T15:15:42.601Z,35.30
2018-04-06T15:18:11.050Z,35.20
2018-04-06T15:20:39.350Z,35.30
2018-04-06T15:23:07.578Z,35.20
2018-04-06T15:25:35.917Z,34.90
2018-04-06T15:28:04.162Z,35.30
2018-04-06T15:30:33.072Z,35.60
2018-04-06T15:33:01.355Z,35.80
2018-04-06T15:35:29.638Z,35.80
2018-04-06T15:37:58.020Z,35.50
2018-04-06T15:40:26.512Z,35.20
2018-04-06T15:42:54.764Z,35.20
2018-04-06T15:45:23.141Z,35.20
2018-04-06T15:47:51.553Z,34.80
2018-04-06T15:50:20.557Z,34.90
2018-04-06T15:52:49.574Z,35.00
2018-04-06T15:55:17.961Z,35.00
2018-04-06T15:57:46.266Z,35.10
2018-04-06T16:00:14.557Z,34.80
2018-04-06T16:02:42.881Z,34.70
2018-04-06T16:05:11.140Z,34.90
2018-04-06T16:07:40.158Z,34.70
2018-04-06T16:10:08.495Z,34.60
2018-04-06T16:12:36.939Z,34.70
2018-04-06T16:15:05.181Z,34.50
2018-04-06T16:17:33.480Z,34.40
2018-04-06T16:20:01.706Z,34.20
2018-04-06T16:22:29.956Z,34.10
2018-04-06T16:24:59.137Z,34.00
2018-04-06T16:27:27.378Z,33.80
2018-04-06T16:29:55.616Z,33.70
2018-04-06T16:32:23.894Z,33.70
2018-04-06T16:34:52.142Z,33.60
2018-04-06T16:37:20.382Z,33.50
2018-04-06T16:39:49.426Z,33.10
2018-04-06T16:42:17.661Z,33.00
2018-04-06T16:44:45.897Z,32.80
2018-04-06T16:47:14.534Z,32.60
2018-04-06T16:49:42.757Z,32.40
2018-04-06T16:52:11.002Z,32.10
2018-04-06T16:54:39.329Z,31.60
2018-04-06T16:57:08.336Z,31.10
2018-04-06T16:59:36.586Z,31.00
2018-04-06T17:02:04.849Z,31.00
2018-04-06T17:04:33.089Z,30.80
2018-04-06T17:07:01.345Z,30.60
2018-04-06T17:09:29.661Z,29.90
2018-04-06T17:11:57.968Z,28.80
2018-04-06T17:14:26.208Z,27.60
2018-04-06T17:16:54.486Z,26.60
2018-04-06T17:19:22.729Z,25.80
2018-04-06T17:21:51.039Z,25.20
2018-04-06T17:24:19.316Z,24.80
2018-04-06T17:26:48.553Z,24.40
2018-04-06T17:29:16.917Z,24.00
2018-04-06T17:31:45.721Z,23.60
2018-04-06T17:34:21.936Z,23.40
2018-04-06T17:36:50.549Z,23.10
2018-04-06T17:39:18.777Z,22.80
2018-04-06T17:41:47.025Z,22.60
2018-04-06T17:44:15.508Z,22.40
2018-04-06T17:46:43.750Z,22.30
2018-04-06T17:49:12.138Z,22.00
2018-04-06T17:51:41.000Z,21.80
2018-04-06T17:54:09.305Z,21.60
2018-04-06T17:56:37.560Z,21.50
2018-04-06T17:59:05.825Z,21.40
2018-04-06T18:01:34.066Z,21.20
2018-04-06T18:04:02.313Z,21.10
2018-04-06T18:06:30.576Z,20.90
2018-04-06T18:08:58.968Z,20.80
2018-04-06T18:11:27.348Z,20.70
2018-04-06T18:13:56.435Z,20.50
2018-04-06T18:16:24.677Z,20.40
2018-04-06T18:18:52.933Z,20.30
2018-04-06T18:21:21.205Z,20.10
2018-04-06T18:23:50.233Z,19.80
2018-04-06T18:26:18.590Z,19.80
2018-04-06T18:28:47.758Z,19.50
2018-04-06T18:31:16.014Z,19.50
2018-04-06T18:33:44.909Z,19.40
2018-04-06T18:36:13.389Z,19.30
2018-04-06T18:38:41.630Z,19.20
2018-04-06T18:41:09.946Z,19.10
2018-04-06T18:43:38.322Z,19.00
2018-04-06T18:46:06.706Z,18.90
2018-04-06T18:48:34.968Z,18.80
2018-04-06T18:51:03.217Z,18.60
2018-04-06T18:53:31.645Z,18.60
2018-04-06T18:55:59.893Z,18.40
2018-04-06T18:58:28.471Z,18.30
2018-04-06T19:00:56.725Z,18.20
2018-04-06T19:03:24.976Z,18.10
2018-04-06T19:05:53.292Z,18.00
2018-04-06T19:08:21.640Z,17.90
2018-04-06T19:10:50.657Z,17.80
2018-04-06T19:13:18.942Z,17.80
2018-04-06T19:15:47.190Z,17.70
2018-04-06T19:18:15.444Z,17.60
2018-04-06T19:20:43.770Z,17.50
2018-04-06T19:23:12.197Z,17.50
2018-04-06T19:25:40.445Z,17.40
2018-04-06T19:28:08.728Z,17.30
2018-04-06T19:30:36.965Z,17.20
2018-04-06T19:33:06.114Z,17.10
2018-04-06T19:35:34.388Z,17.00
2018-04-06T19:38:02.669Z,16.90
2018-04-06T19:40:30.907Z,16.80
2018-04-06T19:42:59.306Z,16.70
2018-04-06T19:45:27.553Z,16.60
2018-04-06T19:47:56.000Z,16.50
2018-04-06T19:50:24.270Z,16.40
2018-04-06T19:52:52.526Z,16.30
2018-04-06T19:55:20.863Z,16.30
2018-04-06T19:57:50.008Z,16.10
2018-04-06T20:00:18.250Z,16.10
2018-04-06T20:02:46.493Z,16.10
2018-04-06T20:05:15.379Z,16.00
2018-04-06T20:07:43.605Z,15.90
2018-04-06T20:10:11.861Z,15.80
2018-04-06T20:12:40.141Z,15.70
2018-04-06T20:15:09.281Z,15.60
2018-04-06T20:17:37.607Z,15.60
2018-04-06T20:20:05.961Z,15.60
2018-04-06T20:22:34.208Z,15.50
2018-04-06T20:25:02.605Z,15.40
2018-04-06T20:27:31.030Z,15.40
2018-04-06T20:29:59.282Z,15.30
2018-04-06T20:32:27.765Z,15.20
2018-04-06T20:34:57.421Z,15.20
2018-04-06T20:37:25.722Z,15.10
2018-04-06T20:39:53.966Z,15.10
2018-04-06T20:42:22.233Z,15.10
2018-04-06T20:44:50.590Z,15.10
2018-04-06T20:47:19.601Z,14.90
2018-04-06T20:49:48.295Z,14.90
2018-04-06T20:52:16.542Z,14.90
2018-04-06T20:54:44.986Z,14.80
2018-04-06T20:57:13.381Z,14.70
2018-04-06T20:59:41.753Z,14.70
2018-04-06T21:02:11.057Z,14.60
2018-04-06T21:04:41.301Z,14.50
2018-04-06T21:07:10.313Z,14.50
2018-04-06T21:09:38.553Z,14.40
2018-04-06T21:12:06.873Z,14.40
2018-04-06T21:14:35.126Z,14.40
2018-04-06T21:17:04.159Z,14.20
2018-04-06T21:19:32.422Z,14.10
2018-04-06T21:22:00.665Z,14.10
2018-04-06T21:24:28.920Z,14.00
2018-04-06T21:26:57.179Z,13.90
2018-04-06T21:29:25.429Z,13.80
2018-04-06T21:31:53.670Z,13.80
2018-04-06T21:34:22.201Z,13.70
2018-04-06T21:36:50.495Z,13.70
2018-04-06T21:39:18.882Z,13.70
2018-04-06T21:41:47.291Z,13.60
2018-04-06T21:44:16.310Z,13.40
2018-04-06T21:46:44.552Z,13.40
2018-04-06T21:49:13.225Z,13.30
2018-04-06T21:51:41.468Z,13.30
2018-04-06T21:54:10.405Z,13.20
2018-04-06T21:56:38.838Z,13.20
2018-04-06T21:59:09.834Z,13.20
2018-04-06T22:01:41.077Z,13.20
2018-04-06T22:04:11.276Z,13.10
2018-04-06T22:06:39.648Z,13.10
2018-04-06T22:09:11.154Z,13.00
2018-04-06T22:11:39.394Z,12.90
2018-04-06T22:14:07.641Z,12.90
2018-04-06T22:16:36.324Z,12.80
2018-04-06T22:19:04.581Z,12.80
2018-04-06T22:21:32.833Z,12.80
2018-04-06T22:24:02.688Z,12.70
2018-04-06T22:26:31.061Z,12.70
2018-04-06T22:28:59.305Z,12.60
2018-04-06T22:31:27.597Z,12.50
2018-04-06T22:33:55.870Z,12.40
2018-04-06T22:36:24.512Z,12.40
2018-04-06T22:38:53.279Z,12.30
2018-04-06T22:41:21.521Z,12.30
2018-04-06T22:43:49.949Z,12.20
2018-04-06T22:46:18.228Z,12.20
2018-04-06T22:48:46.469Z,12.10
2018-04-06T22:51:14.774Z,12.10
2018-04-06T22:53:43.177Z,12.00
2018-04-06T22:56:11.427Z,12.00
2018-04-06T22:58:39.668Z,11.90
2018-04-06T23:01:08.086Z,11.90
2018-04-06T23:03:36.363Z,11.80
2018-04-06T23:06:04.615Z,11.80
2018-04-06T23:08:33.020Z,11.80
2018-04-06T23:11:01.245Z,11.70
2018-04-06T23:13:29.574Z,11.70
2018-04-06T23:15:57.833Z,11.60
2018-04-06T23:18:26.081Z,11.50
2018-04-06T23:20:54.416Z,11.50
2018-04-06T23:23:22.860Z,11.40
2018-04-06T23:25:51.205Z,11.40
2018-04-06T23:28:20.221Z,11.30
2018-04-06T23:30:48.585Z,11.30
2018-04-06T23:33:16.828Z,11.30
2018-04-06T23:35:45.072Z,11.30
2018-04-06T23:38:13.341Z,11.30
2018-04-06T23:40:41.576Z,11.20
2018-04-06T23:43:09.818Z,11.20
2018-04-06T23:45:38.304Z,11.20
2018-04-06T23:48:06.546Z,11.10
2018-04-06T23:50:35.163Z,11.10
2018-04-06T23:53:03.716Z,11.10
2018-04-06T23:55:31.953Z,11.10
2018-04-06T23:58:00.209Z,11.00
